sensor_id;sensor_type;location;lat;lon;timestamp;temperature;humidity
49861;DHT22;35761;48.826;9.238;2023-05-19T00:01:28;13.30;21.30
49861;DHT22;35761;48.826;9.238;2023-05-19T00:03:59;13.20;21.40
49861;DHT22;35761;48.826;9.238;2023-05-19T00:06:32;13.10;21.40
49861;DHT22;35761;48.826;9.238;2023-05-19T00:09:04;13.10;21.50
49861;DHT22;35761;48.826;9.238;2023-05-19T00:11:39;13.00;20.70
49861;DHT22;35761;48.826;9.238;2023-05-19T00:14:11;13.10;21.40
49861;DHT22;35761;48.826;9.238;2023-05-19T00:16:42;13.00;21.40
49861;DHT22;35761;48.826;9.238;2023-05-19T00:19:13;13.00;21.40
49861;DHT22;35761;48.826;9.238;2023-05-19T00:21:45;12.90;21.40
49861;DHT22;35761;48.826;9.238;2023-05-19T00:24:15;12.90;21.80
49861;DHT22;35761;48.826;9.238;2023-05-19T00:26:48;12.90;22.00
49861;DHT22;35761;48.826;9.238;2023-05-19T00:29:19;12.90;22.10
49861;DHT22;35761;48.826;9.238;2023-05-19T00:31:49;12.80;22.30
49861;DHT22;35761;48.826;9.238;2023-05-19T00:34:20;12.80;22.40
49861;DHT22;35761;48.826;9.238;2023-05-19T00:36:51;12.80;22.40
49861;DHT22;35761;48.826;9.238;2023-05-19T00:39:21;12.90;22.50
49861;DHT22;35761;48.826;9.238;2023-05-19T00:41:54;12.90;22.60
49861;DHT22;35761;48.826;9.238;2023-05-19T00:44:25;12.80;22.60
49861;DHT22;35761;48.826;9.238;2023-05-19T00:46:56;12.80;23.10
49861;DHT22;35761;48.826;9.238;2023-05-19T00:49:27;12.70;22.80
49861;DHT22;35761;48.826;9.238;2023-05-19T00:51:58;12.70;23.10
49861;DHT22;35761;48.826;9.238;2023-05-19T00:54:31;12.60;23.20
49861;DHT22;35761;48.826;9.238;2023-05-19T00:57:05;12.60;23.40
49861;DHT22;35761;48.826;9.238;2023-05-19T00:59:36;12.50;23.50
49861;DHT22;35761;48.826;9.238;2023-05-19T01:02:06;12.50;23.80
49861;DHT22;35761;48.826;9.238;2023-05-19T01:04:37;12.50;24.10
49861;DHT22;35761;48.826;9.238;2023-05-19T01:07:10;12.40;24.20
49861;DHT22;35761;48.826;9.238;2023-05-19T01:09:41;12.40;24.40
49861;DHT22;35761;48.826;9.238;2023-05-19T01:12:15;12.40;24.40
49861;DHT22;35761;48.826;9.238;2023-05-19T01:14:45;12.40;24.50
49861;DHT22;35761;48.826;9.238;2023-05-19T01:17:20;12.40;26.20
49861;DHT22;35761;48.826;9.238;2023-05-19T01:20:00;12.40;28.70
49861;DHT22;35761;48.826;9.238;2023-05-19T01:23:02;12.40;31.00
49861;DHT22;35761;48.826;9.238;2023-05-19T01:26:19;12.40;33.00
49861;DHT22;35761;48.826;9.238;2023-05-19T01:29:27;12.40;35.50
49861;DHT22;35761;48.826;9.238;2023-05-19T01:32:09;12.30;50.40
49861;DHT22;35761;48.826;9.238;2023-05-19T01:34:42;12.20;46.80
49861;DHT22;35761;48.826;9.238;2023-05-19T01:37:14;12.20;26.30
49861;DHT22;35761;48.826;9.238;2023-05-19T01:39:45;12.20;26.20
49861;DHT22;35761;48.826;9.238;2023-05-19T01:42:17;12.30;26.30
49861;DHT22;35761;48.826;9.238;2023-05-19T01:44:48;12.20;26.20
49861;DHT22;35761;48.826;9.238;2023-05-19T01:47:23;12.10;26.20
49861;DHT22;35761;48.826;9.238;2023-05-19T01:49:53;12.10;26.60
49861;DHT22;35761;48.826;9.238;2023-05-19T01:52:25;12.00;26.60
49861;DHT22;35761;48.826;9.238;2023-05-19T01:54:56;12.00;26.70
49861;DHT22;35761;48.826;9.238;2023-05-19T01:57:33;12.00;26.80
49861;DHT22;35761;48.826;9.238;2023-05-19T02:00:14;12.00;27.10
49861;DHT22;35761;48.826;9.238;2023-05-19T02:02:56;12.00;27.30
49861;DHT22;35761;48.826;9.238;2023-05-19T02:05:37;12.00;27.60
49861;DHT22;35761;48.826;9.238;2023-05-19T02:08:21;12.00;27.60
49861;DHT22;35761;48.826;9.238;2023-05-19T02:10:57;12.00;28.20
49861;DHT22;35761;48.826;9.238;2023-05-19T02:13:36;12.00;27.70
49861;DHT22;35761;48.826;9.238;2023-05-19T02:16:10;12.00;27.60
49861;DHT22;35761;48.826;9.238;2023-05-19T02:18:45;12.00;27.60
49861;DHT22;35761;48.826;9.238;2023-05-19T02:21:16;12.00;27.90
49861;DHT22;35761;48.826;9.238;2023-05-19T02:23:47;11.90;28.00
49861;DHT22;35761;48.826;9.238;2023-05-19T02:26:31;11.90;27.80
49861;DHT22;35761;48.826;9.238;2023-05-19T02:29:07;11.90;28.30
49861;DHT22;35761;48.826;9.238;2023-05-19T02:31:38;11.90;28.40
49861;DHT22;35761;48.826;9.238;2023-05-19T02:34:11;11.80;28.30
49861;DHT22;35761;48.826;9.238;2023-05-19T02:36:49;11.80;28.60
49861;DHT22;35761;48.826;9.238;2023-05-19T02:39:20;11.90;28.70
49861;DHT22;35761;48.826;9.238;2023-05-19T02:41:50;11.80;28.90
49861;DHT22;35761;48.826;9.238;2023-05-19T02:44:21;11.80;28.80
49861;DHT22;35761;48.826;9.238;2023-05-19T02:46:53;11.80;28.70
49861;DHT22;35761;48.826;9.238;2023-05-19T02:49:26;11.80;29.40
49861;DHT22;35761;48.826;9.238;2023-05-19T02:52:02;11.80;28.90
49861;DHT22;35761;48.826;9.238;2023-05-19T02:54:35;11.70;29.00
49861;DHT22;35761;48.826;9.238;2023-05-19T02:57:18;11.70;29.20
49861;DHT22;35761;48.826;9.238;2023-05-19T02:59:48;11.70;29.10
49861;DHT22;35761;48.826;9.238;2023-05-19T03:02:21;11.70;29.20
49861;DHT22;35761;48.826;9.238;2023-05-19T03:04:54;11.70;29.50
49861;DHT22;35761;48.826;9.238;2023-05-19T03:07:28;11.70;29.50
49861;DHT22;35761;48.826;9.238;2023-05-19T03:10:00;11.70;29.30
49861;DHT22;35761;48.826;9.238;2023-05-19T03:12:38;11.70;29.60
49861;DHT22;35761;48.826;9.238;2023-05-19T03:15:10;11.70;29.60
49861;DHT22;35761;48.826;9.238;2023-05-19T03:17:42;11.70;29.90
49861;DHT22;35761;48.826;9.238;2023-05-19T03:20:16;11.60;29.90
49861;DHT22;35761;48.826;9.238;2023-05-19T03:22:47;11.60;30.00
49861;DHT22;35761;48.826;9.238;2023-05-19T03:25:18;11.60;30.20
49861;DHT22;35761;48.826;9.238;2023-05-19T03:27:48;11.60;30.80
49861;DHT22;35761;48.826;9.238;2023-05-19T03:30:19;11.60;30.20
49861;DHT22;35761;48.826;9.238;2023-05-19T03:33:03;11.50;30.50
49861;DHT22;35761;48.826;9.238;2023-05-19T03:35:36;11.50;30.70
49861;DHT22;35761;48.826;9.238;2023-05-19T03:38:07;11.50;31.00
49861;DHT22;35761;48.826;9.238;2023-05-19T03:40:40;11.50;31.00
49861;DHT22;35761;48.826;9.238;2023-05-19T03:43:12;11.50;31.30
49861;DHT22;35761;48.826;9.238;2023-05-19T03:45:53;11.40;34.50
49861;DHT22;35761;48.826;9.238;2023-05-19T03:48:43;11.40;30.80
49861;DHT22;35761;48.826;9.238;2023-05-19T03:51:34;11.40;31.40
49861;DHT22;35761;48.826;9.238;2023-05-19T03:54:17;11.40;32.10
49861;DHT22;35761;48.826;9.238;2023-05-19T03:56:50;11.30;31.40
49861;DHT22;35761;48.826;9.238;2023-05-19T03:59:20;11.30;31.80
49861;DHT22;35761;48.826;9.238;2023-05-19T04:01:52;11.20;31.40
49861;DHT22;35761;48.826;9.238;2023-05-19T04:04:25;11.20;32.00
49861;DHT22;35761;48.826;9.238;2023-05-19T04:06:59;11.20;32.30
49861;DHT22;35761;48.826;9.238;2023-05-19T04:09:29;11.20;32.40
49861;DHT22;35761;48.826;9.238;2023-05-19T04:12:01;11.20;32.80
49861;DHT22;35761;48.826;9.238;2023-05-19T04:14:32;11.20;32.80
49861;DHT22;35761;48.826;9.238;2023-05-19T04:17:02;11.20;33.00
49861;DHT22;35761;48.826;9.238;2023-05-19T04:19:33;11.10;33.10
49861;DHT22;35761;48.826;9.238;2023-05-19T04:22:07;11.10;33.50
49861;DHT22;35761;48.826;9.238;2023-05-19T04:24:37;11.10;33.50
49861;DHT22;35761;48.826;9.238;2023-05-19T04:27:07;11.10;33.40
49861;DHT22;35761;48.826;9.238;2023-05-19T04:29:39;11.10;33.10
49861;DHT22;35761;48.826;9.238;2023-05-19T04:32:10;11.10;33.00
49861;DHT22;35761;48.826;9.238;2023-05-19T04:34:44;11.10;33.00
49861;DHT22;35761;48.826;9.238;2023-05-19T04:37:23;11.00;33.20
49861;DHT22;35761;48.826;9.238;2023-05-19T04:39:54;11.10;33.10
49861;DHT22;35761;48.826;9.238;2023-05-19T04:42:26;11.00;33.30
49861;DHT22;35761;48.826;9.238;2023-05-19T04:45:00;11.00;33.30
49861;DHT22;35761;48.826;9.238;2023-05-19T04:47:34;11.00;33.50
49861;DHT22;35761;48.826;9.238;2023-05-19T04:50:06;11.00;33.90
49861;DHT22;35761;48.826;9.238;2023-05-19T04:52:41;11.00;34.10
49861;DHT22;35761;48.826;9.238;2023-05-19T04:55:12;11.10;34.10
49861;DHT22;35761;48.826;9.238;2023-05-19T04:57:44;11.00;33.90
49861;DHT22;35761;48.826;9.238;2023-05-19T05:00:16;11.10;34.20
49861;DHT22;35761;48.826;9.238;2023-05-19T05:03:03;11.10;34.20
49861;DHT22;35761;48.826;9.238;2023-05-19T05:05:34;11.10;34.20
49861;DHT22;35761;48.826;9.238;2023-05-19T05:08:09;11.00;33.70
49861;DHT22;35761;48.826;9.238;2023-05-19T05:10:42;11.00;33.70
49861;DHT22;35761;48.826;9.238;2023-05-19T05:13:13;11.00;33.80
49861;DHT22;35761;48.826;9.238;2023-05-19T05:15:44;11.00;33.50
49861;DHT22;35761;48.826;9.238;2023-05-19T05:18:16;11.10;33.40
49861;DHT22;35761;48.826;9.238;2023-05-19T05:20:47;11.10;33.30
49861;DHT22;35761;48.826;9.238;2023-05-19T05:23:22;11.10;33.50
49861;DHT22;35761;48.826;9.238;2023-05-19T05:25:54;11.10;33.60
49861;DHT22;35761;48.826;9.238;2023-05-19T05:28:25;11.10;33.80
49861;DHT22;35761;48.826;9.238;2023-05-19T05:30:57;11.10;34.20
49861;DHT22;35761;48.826;9.238;2023-05-19T05:33:28;11.10;33.80
49861;DHT22;35761;48.826;9.238;2023-05-19T05:35:59;11.10;33.40
49861;DHT22;35761;48.826;9.238;2023-05-19T05:38:33;11.20;33.50
49861;DHT22;35761;48.826;9.238;2023-05-19T05:41:04;11.20;33.60
49861;DHT22;35761;48.826;9.238;2023-05-19T05:43:36;11.20;33.80
49861;DHT22;35761;48.826;9.238;2023-05-19T05:46:07;11.30;33.60
49861;DHT22;35761;48.826;9.238;2023-05-19T05:48:39;11.20;33.20
49861;DHT22;35761;48.826;9.238;2023-05-19T05:51:11;11.20;33.60
49861;DHT22;35761;48.826;9.238;2023-05-19T05:53:49;11.20;33.50
49861;DHT22;35761;48.826;9.238;2023-05-19T05:56:30;11.20;34.00
49861;DHT22;35761;48.826;9.238;2023-05-19T05:59:05;11.30;33.30
49861;DHT22;35761;48.826;9.238;2023-05-19T06:01:36;11.30;33.30
49861;DHT22;35761;48.826;9.238;2023-05-19T06:04:08;11.30;33.80
49861;DHT22;35761;48.826;9.238;2023-05-19T06:06:39;11.40;33.30
49861;DHT22;35761;48.826;9.238;2023-05-19T06:09:14;11.40;33.20
49861;DHT22;35761;48.826;9.238;2023-05-19T06:11:45;11.40;33.50
49861;DHT22;35761;48.826;9.238;2023-05-19T06:14:16;11.50;34.60
49861;DHT22;35761;48.826;9.238;2023-05-19T06:17:06;11.60;34.40
49861;DHT22;35761;48.826;9.238;2023-05-19T06:19:37;11.70;33.10
49861;DHT22;35761;48.826;9.238;2023-05-19T06:22:08;11.70;33.30
49861;DHT22;35761;48.826;9.238;2023-05-19T06:24:41;11.80;33.20
49861;DHT22;35761;48.826;9.238;2023-05-19T06:27:13;11.80;32.70
49861;DHT22;35761;48.826;9.238;2023-05-19T06:29:45;11.80;33.30
49861;DHT22;35761;48.826;9.238;2023-05-19T06:32:15;11.80;33.60
49861;DHT22;35761;48.826;9.238;2023-05-19T06:34:46;11.90;37.60
49861;DHT22;35761;48.826;9.238;2023-05-19T06:37:20;11.90;37.00
49861;DHT22;35761;48.826;9.238;2023-05-19T06:39:54;12.00;37.10
49861;DHT22;35761;48.826;9.238;2023-05-19T06:42:25;12.00;36.60
49861;DHT22;35761;48.826;9.238;2023-05-19T06:45:06;12.00;37.00
49861;DHT22;35761;48.826;9.238;2023-05-19T06:47:37;12.00;36.80
49861;DHT22;35761;48.826;9.238;2023-05-19T06:50:10;12.10;33.20
49861;DHT22;35761;48.826;9.238;2023-05-19T06:52:42;12.10;33.70
49861;DHT22;35761;48.826;9.238;2023-05-19T06:55:15;12.20;34.00
49861;DHT22;35761;48.826;9.238;2023-05-19T06:57:48;12.30;34.20
49861;DHT22;35761;48.826;9.238;2023-05-19T07:00:19;12.30;33.40
49861;DHT22;35761;48.826;9.238;2023-05-19T07:02:52;12.30;33.10
49861;DHT22;35761;48.826;9.238;2023-05-19T07:05:23;12.40;32.70
49861;DHT22;35761;48.826;9.238;2023-05-19T07:07:57;12.40;32.80
49861;DHT22;35761;48.826;9.238;2023-05-19T07:10:31;12.50;33.30
49861;DHT22;35761;48.826;9.238;2023-05-19T07:13:06;12.50;33.50
49861;DHT22;35761;48.826;9.238;2023-05-19T07:15:36;12.60;33.60
49861;DHT22;35761;48.826;9.238;2023-05-19T07:18:07;12.70;32.40
49861;DHT22;35761;48.826;9.238;2023-05-19T07:20:37;12.70;31.70
49861;DHT22;35761;48.826;9.238;2023-05-19T07:23:08;12.80;31.50
49861;DHT22;35761;48.826;9.238;2023-05-19T07:25:41;12.80;32.20
49861;DHT22;35761;48.826;9.238;2023-05-19T07:28:12;12.80;30.80
49861;DHT22;35761;48.826;9.238;2023-05-19T07:30:42;12.80;34.40
49861;DHT22;35761;48.826;9.238;2023-05-19T07:35:47;12.90;31.10
49861;DHT22;35761;48.826;9.238;2023-05-19T07:38:17;13.00;30.80
49861;DHT22;35761;48.826;9.238;2023-05-19T07:40:51;12.40;30.10
49861;DHT22;35761;48.826;9.238;2023-05-19T07:45:52;13.10;29.80
49861;DHT22;35761;48.826;9.238;2023-05-19T07:48:25;13.10;30.90
49861;DHT22;35761;48.826;9.238;2023-05-19T07:50:56;13.20;30.20
49861;DHT22;35761;48.826;9.238;2023-05-19T07:53:26;13.20;29.70
49861;DHT22;35761;48.826;9.238;2023-05-19T07:56:01;13.20;29.70
49861;DHT22;35761;48.826;9.238;2023-05-19T07:58:32;13.30;29.70
49861;DHT22;35761;48.826;9.238;2023-05-19T08:01:05;13.40;29.20
49861;DHT22;35761;48.826;9.238;2023-05-19T08:03:35;13.40;28.10
49861;DHT22;35761;48.826;9.238;2023-05-19T08:06:06;13.40;28.20
49861;DHT22;35761;48.826;9.238;2023-05-19T08:08:37;13.40;28.90
49861;DHT22;35761;48.826;9.238;2023-05-19T08:11:11;13.50;29.20
49861;DHT22;35761;48.826;9.238;2023-05-19T08:13:41;13.50;28.70
49861;DHT22;35761;48.826;9.238;2023-05-19T08:16:13;13.50;28.40
49861;DHT22;35761;48.826;9.238;2023-05-19T08:18:44;13.50;28.80
49861;DHT22;35761;48.826;9.238;2023-05-19T08:21:15;13.50;28.90
49861;DHT22;35761;48.826;9.238;2023-05-19T08:23:45;13.60;27.70
49861;DHT22;35761;48.826;9.238;2023-05-19T08:26:18;13.50;27.70
49861;DHT22;35761;48.826;9.238;2023-05-19T08:28:49;13.60;27.80
49861;DHT22;35761;48.826;9.238;2023-05-19T08:31:20;13.60;28.00
49861;DHT22;35761;48.826;9.238;2023-05-19T08:33:54;13.60;27.50
49861;DHT22;35761;48.826;9.238;2023-05-19T08:36:27;13.60;27.70
49861;DHT22;35761;48.826;9.238;2023-05-19T08:38:57;13.70;27.90
49861;DHT22;35761;48.826;9.238;2023-05-19T08:41:31;13.70;27.40
49861;DHT22;35761;48.826;9.238;2023-05-19T08:44:01;13.70;27.00
49861;DHT22;35761;48.826;9.238;2023-05-19T08:46:32;13.70;27.10
49861;DHT22;35761;48.826;9.238;2023-05-19T08:49:07;13.70;26.90
49861;DHT22;35761;48.826;9.238;2023-05-19T08:51:48;13.70;27.80
49861;DHT22;35761;48.826;9.238;2023-05-19T08:54:25;13.80;28.20
49861;DHT22;35761;48.826;9.238;2023-05-19T08:57:04;13.80;28.40
49861;DHT22;35761;48.826;9.238;2023-05-19T08:59:36;13.90;29.60
49861;DHT22;35761;48.826;9.238;2023-05-19T09:02:10;13.90;27.30
49861;DHT22;35761;48.826;9.238;2023-05-19T09:04:42;13.90;26.50
49861;DHT22;35761;48.826;9.238;2023-05-19T09:07:14;13.90;27.60
49861;DHT22;35761;48.826;9.238;2023-05-19T09:09:45;14.00;27.10
49861;DHT22;35761;48.826;9.238;2023-05-19T09:12:18;14.00;27.40
49861;DHT22;35761;48.826;9.238;2023-05-19T09:14:48;14.10;27.30
49861;DHT22;35761;48.826;9.238;2023-05-19T09:17:19;14.10;27.10
49861;DHT22;35761;48.826;9.238;2023-05-19T09:19:50;14.10;27.60
49861;DHT22;35761;48.826;9.238;2023-05-19T09:22:20;14.10;27.00
49861;DHT22;35761;48.826;9.238;2023-05-19T09:24:52;14.10;26.90
49861;DHT22;35761;48.826;9.238;2023-05-19T09:27:25;14.20;26.80
49861;DHT22;35761;48.826;9.238;2023-05-19T09:29:59;14.20;26.90
49861;DHT22;35761;48.826;9.238;2023-05-19T09:35:08;14.20;26.50
49861;DHT22;35761;48.826;9.238;2023-05-19T09:37:40;14.30;26.60
49861;DHT22;35761;48.826;9.238;2023-05-19T09:40:13;14.30;26.60
49861;DHT22;35761;48.826;9.238;2023-05-19T09:42:47;14.30;25.50
49861;DHT22;35761;48.826;9.238;2023-05-19T09:45:19;14.30;25.60
49861;DHT22;35761;48.826;9.238;2023-05-19T09:47:49;14.30;26.00
49861;DHT22;35761;48.826;9.238;2023-05-19T09:50:21;14.40;26.30
49861;DHT22;35761;48.826;9.238;2023-05-19T09:52:56;14.40;26.70
49861;DHT22;35761;48.826;9.238;2023-05-19T09:55:28;14.40;26.20
49861;DHT22;35761;48.826;9.238;2023-05-19T09:58:03;14.50;26.00
49861;DHT22;35761;48.826;9.238;2023-05-19T10:00:33;14.50;25.10
49861;DHT22;35761;48.826;9.238;2023-05-19T10:03:04;14.60;25.70
49861;DHT22;35761;48.826;9.238;2023-05-19T10:05:35;14.70;25.80
49861;DHT22;35761;48.826;9.238;2023-05-19T10:08:08;14.70;25.00
49861;DHT22;35761;48.826;9.238;2023-05-19T10:10:41;14.70;24.60
49861;DHT22;35761;48.826;9.238;2023-05-19T10:13:15;14.80;24.80
49861;DHT22;35761;48.826;9.238;2023-05-19T10:15:46;14.80;25.00
49861;DHT22;35761;48.826;9.238;2023-05-19T10:18:26;14.80;25.10
49861;DHT22;35761;48.826;9.238;2023-05-19T10:20:58;14.80;45.50
49861;DHT22;35761;48.826;9.238;2023-05-19T10:23:29;14.80;72.90
49861;DHT22;35761;48.826;9.238;2023-05-19T10:26:00;14.80;69.70
49861;DHT22;35761;48.826;9.238;2023-05-19T10:28:38;14.70;24.60
49861;DHT22;35761;48.826;9.238;2023-05-19T10:31:15;14.90;25.10
49861;DHT22;35761;48.826;9.238;2023-05-19T10:34:12;15.00;24.00
49861;DHT22;35761;48.826;9.238;2023-05-19T10:37:01;14.90;24.80
49861;DHT22;35761;48.826;9.238;2023-05-19T10:39:35;14.90;25.40
49861;DHT22;35761;48.826;9.238;2023-05-19T10:42:14;14.90;25.10
49861;DHT22;35761;48.826;9.238;2023-05-19T10:44:57;14.90;25.20
49861;DHT22;35761;48.826;9.238;2023-05-19T10:47:30;15.00;24.30
49861;DHT22;35761;48.826;9.238;2023-05-19T10:50:01;15.00;24.70
49861;DHT22;35761;48.826;9.238;2023-05-19T10:52:36;15.10;24.70
49861;DHT22;35761;48.826;9.238;2023-05-19T10:55:08;15.10;24.30
49861;DHT22;35761;48.826;9.238;2023-05-19T10:57:52;15.00;24.40
49861;DHT22;35761;48.826;9.238;2023-05-19T11:00:31;15.10;24.20
49861;DHT22;35761;48.826;9.238;2023-05-19T11:03:14;15.10;23.90
49861;DHT22;35761;48.826;9.238;2023-05-19T11:05:50;15.10;25.50
49861;DHT22;35761;48.826;9.238;2023-05-19T11:08:31;15.10;24.40
49861;DHT22;35761;48.826;9.238;2023-05-19T11:11:12;15.10;24.50
49861;DHT22;35761;48.826;9.238;2023-05-19T11:13:46;15.10;24.30
49861;DHT22;35761;48.826;9.238;2023-05-19T11:16:25;15.10;23.60
49861;DHT22;35761;48.826;9.238;2023-05-19T11:18:58;15.10;24.10
49861;DHT22;35761;48.826;9.238;2023-05-19T11:21:41;15.10;24.00
49861;DHT22;35761;48.826;9.238;2023-05-19T11:24:32;15.20;24.00
49861;DHT22;35761;48.826;9.238;2023-05-19T11:27:20;15.20;23.60
49861;DHT22;35761;48.826;9.238;2023-05-19T11:29:54;15.20;24.70
49861;DHT22;35761;48.826;9.238;2023-05-19T11:32:30;15.30;24.40
49861;DHT22;35761;48.826;9.238;2023-05-19T11:35:06;15.30;23.90
49861;DHT22;35761;48.826;9.238;2023-05-19T11:37:37;15.30;23.10
49861;DHT22;35761;48.826;9.238;2023-05-19T11:40:09;15.30;22.90
49861;DHT22;35761;48.826;9.238;2023-05-19T11:42:40;15.30;22.80
49861;DHT22;35761;48.826;9.238;2023-05-19T11:45:11;15.30;23.50
49861;DHT22;35761;48.826;9.238;2023-05-19T11:47:45;15.30;24.00
49861;DHT22;35761;48.826;9.238;2023-05-19T11:50:30;15.30;23.60
49861;DHT22;35761;48.826;9.238;2023-05-19T11:53:03;15.30;24.60
49861;DHT22;35761;48.826;9.238;2023-05-19T11:55:33;15.30;24.20
49861;DHT22;35761;48.826;9.238;2023-05-19T11:58:04;15.40;22.80
49861;DHT22;35761;48.826;9.238;2023-05-19T12:00:36;15.40;23.00
49861;DHT22;35761;48.826;9.238;2023-05-19T12:03:10;15.40;23.80
49861;DHT22;35761;48.826;9.238;2023-05-19T12:05:43;15.40;23.40
49861;DHT22;35761;48.826;9.238;2023-05-19T12:08:15;15.40;23.30
49861;DHT22;35761;48.826;9.238;2023-05-19T12:10:48;15.40;23.00
49861;DHT22;35761;48.826;9.238;2023-05-19T12:13:19;15.40;23.70
49861;DHT22;35761;48.826;9.238;2023-05-19T12:15:51;15.50;23.70
49861;DHT22;35761;48.826;9.238;2023-05-19T12:18:28;15.50;23.80
49861;DHT22;35761;48.826;9.238;2023-05-19T12:20:59;15.50;22.90
49861;DHT22;35761;48.826;9.238;2023-05-19T12:23:30;15.40;23.20
49861;DHT22;35761;48.826;9.238;2023-05-19T12:26:01;15.50;22.50
49861;DHT22;35761;48.826;9.238;2023-05-19T12:28:32;15.50;22.50
49861;DHT22;35761;48.826;9.238;2023-05-19T12:31:03;15.50;22.60
49861;DHT22;35761;48.826;9.238;2023-05-19T12:33:37;15.50;23.00
49861;DHT22;35761;48.826;9.238;2023-05-19T12:36:09;15.50;23.50
49861;DHT22;35761;48.826;9.238;2023-05-19T12:38:40;15.50;23.80
49861;DHT22;35761;48.826;9.238;2023-05-19T12:41:10;15.50;23.40
49861;DHT22;35761;48.826;9.238;2023-05-19T12:43:41;15.50;23.10
49861;DHT22;35761;48.826;9.238;2023-05-19T12:46:12;15.60;22.90
49861;DHT22;35761;48.826;9.238;2023-05-19T12:48:47;15.50;22.90
49861;DHT22;35761;48.826;9.238;2023-05-19T12:51:17;15.50;23.00
49861;DHT22;35761;48.826;9.238;2023-05-19T12:53:49;15.50;23.10
49861;DHT22;35761;48.826;9.238;2023-05-19T12:56:19;15.50;23.70
49861;DHT22;35761;48.826;9.238;2023-05-19T12:58:52;15.50;24.20
49861;DHT22;35761;48.826;9.238;2023-05-19T13:01:23;15.50;24.20
49861;DHT22;35761;48.826;9.238;2023-05-19T13:03:57;15.50;23.90
49861;DHT22;35761;48.826;9.238;2023-05-19T13:06:32;15.50;23.70
49861;DHT22;35761;48.826;9.238;2023-05-19T13:09:02;15.50;23.70
49861;DHT22;35761;48.826;9.238;2023-05-19T13:11:33;15.50;23.80
49861;DHT22;35761;48.826;9.238;2023-05-19T13:14:04;15.50;24.00
49861;DHT22;35761;48.826;9.238;2023-05-19T13:16:34;15.40;24.00
49861;DHT22;35761;48.826;9.238;2023-05-19T13:19:07;15.40;25.00
49861;DHT22;35761;48.826;9.238;2023-05-19T13:21:51;15.40;23.90
49861;DHT22;35761;48.826;9.238;2023-05-19T13:24:22;15.40;24.10
49861;DHT22;35761;48.826;9.238;2023-05-19T13:26:52;15.40;24.00
49861;DHT22;35761;48.826;9.238;2023-05-19T13:29:23;15.40;23.80
49861;DHT22;35761;48.826;9.238;2023-05-19T13:31:54;15.50;24.20
49861;DHT22;35761;48.826;9.238;2023-05-19T13:34:30;15.50;24.20
49861;DHT22;35761;48.826;9.238;2023-05-19T13:37:00;15.40;24.80
49861;DHT22;35761;48.826;9.238;2023-05-19T13:39:32;15.50;24.20
49861;DHT22;35761;48.826;9.238;2023-05-19T13:42:03;15.50;24.00
49861;DHT22;35761;48.826;9.238;2023-05-19T13:44:34;15.50;24.60
49861;DHT22;35761;48.826;9.238;2023-05-19T13:47:05;15.50;24.40
49861;DHT22;35761;48.826;9.238;2023-05-19T13:49:38;15.50;24.60
49861;DHT22;35761;48.826;9.238;2023-05-19T13:52:09;15.50;24.70
49861;DHT22;35761;48.826;9.238;2023-05-19T13:54:42;15.50;25.00
49861;DHT22;35761;48.826;9.238;2023-05-19T13:57:15;15.50;24.80
49861;DHT22;35761;48.826;9.238;2023-05-19T13:59:46;15.50;24.60
49861;DHT22;35761;48.826;9.238;2023-05-19T14:02:37;15.40;24.40
49861;DHT22;35761;48.826;9.238;2023-05-19T14:05:11;15.50;24.20
49861;DHT22;35761;48.826;9.238;2023-05-19T14:07:41;15.50;24.70
49861;DHT22;35761;48.826;9.238;2023-05-19T14:10:13;15.50;25.30
49861;DHT22;35761;48.826;9.238;2023-05-19T14:12:44;15.50;25.50
49861;DHT22;35761;48.826;9.238;2023-05-19T14:15:34;15.60;24.70
49861;DHT22;35761;48.826;9.238;2023-05-19T14:18:07;15.60;24.90
49861;DHT22;35761;48.826;9.238;2023-05-19T14:20:40;15.60;24.90
49861;DHT22;35761;48.826;9.238;2023-05-19T14:23:11;15.70;24.40
49861;DHT22;35761;48.826;9.238;2023-05-19T14:25:43;15.70;24.60
49861;DHT22;35761;48.826;9.238;2023-05-19T14:28:13;15.70;24.40
49861;DHT22;35761;48.826;9.238;2023-05-19T14:30:44;15.70;24.90
49861;DHT22;35761;48.826;9.238;2023-05-19T14:33:14;15.70;25.20
49861;DHT22;35761;48.826;9.238;2023-05-19T14:35:48;15.70;24.90
49861;DHT22;35761;48.826;9.238;2023-05-19T14:38:18;15.70;24.60
49861;DHT22;35761;48.826;9.238;2023-05-19T14:40:49;15.80;24.50
49861;DHT22;35761;48.826;9.238;2023-05-19T14:43:20;15.80;24.00
49861;DHT22;35761;48.826;9.238;2023-05-19T14:45:50;15.70;24.30
49861;DHT22;35761;48.826;9.238;2023-05-19T14:48:21;15.80;24.80
49861;DHT22;35761;48.826;9.238;2023-05-19T14:50:54;15.70;25.30
49861;DHT22;35761;48.826;9.238;2023-05-19T14:53:25;15.80;25.30
49861;DHT22;35761;48.826;9.238;2023-05-19T14:55:55;15.80;25.70
49861;DHT22;35761;48.826;9.238;2023-05-19T14:58:26;15.80;25.40
49861;DHT22;35761;48.826;9.238;2023-05-19T15:00:57;15.80;25.70
49861;DHT22;35761;48.826;9.238;2023-05-19T15:03:28;15.80;25.00
49861;DHT22;35761;48.826;9.238;2023-05-19T15:06:01;15.80;25.10
49861;DHT22;35761;48.826;9.238;2023-05-19T15:08:31;15.80;25.50
49861;DHT22;35761;48.826;9.238;2023-05-19T15:11:04;15.80;24.00
49861;DHT22;35761;48.826;9.238;2023-05-19T15:13:34;15.80;23.90
49861;DHT22;35761;48.826;9.238;2023-05-19T15:16:05;15.80;24.10
49861;DHT22;35761;48.826;9.238;2023-05-19T15:18:40;15.80;24.40
49861;DHT22;35761;48.826;9.238;2023-05-19T15:21:13;15.80;24.70
49861;DHT22;35761;48.826;9.238;2023-05-19T15:23:43;15.80;24.90
49861;DHT22;35761;48.826;9.238;2023-05-19T15:26:14;15.80;25.10
49861;DHT22;35761;48.826;9.238;2023-05-19T15:28:44;15.80;24.60
49861;DHT22;35761;48.826;9.238;2023-05-19T15:31:15;15.80;24.70
49861;DHT22;35761;48.826;9.238;2023-05-19T15:33:45;15.80;24.70
49861;DHT22;35761;48.826;9.238;2023-05-19T15:36:19;15.80;24.40
49861;DHT22;35761;48.826;9.238;2023-05-19T15:38:50;15.80;24.10
49861;DHT22;35761;48.826;9.238;2023-05-19T15:41:20;15.80;24.50
49861;DHT22;35761;48.826;9.238;2023-05-19T15:43:50;15.90;23.70
49861;DHT22;35761;48.826;9.238;2023-05-19T15:46:22;15.90;23.80
49861;DHT22;35761;48.826;9.238;2023-05-19T15:48:52;16.00;23.80
49861;DHT22;35761;48.826;9.238;2023-05-19T15:51:25;15.90;23.90
49861;DHT22;35761;48.826;9.238;2023-05-19T15:53:56;15.90;23.50
49861;DHT22;35761;48.826;9.238;2023-05-19T15:56:26;15.90;23.80
49861;DHT22;35761;48.826;9.238;2023-05-19T15:58:57;15.90;24.30
49861;DHT22;35761;48.826;9.238;2023-05-19T16:01:27;16.00;24.90
49861;DHT22;35761;48.826;9.238;2023-05-19T16:03:58;16.10;25.20
49861;DHT22;35761;48.826;9.238;2023-05-19T16:06:32;16.00;26.70
49861;DHT22;35761;48.826;9.238;2023-05-19T16:09:03;16.00;27.80
49861;DHT22;35761;48.826;9.238;2023-05-19T16:11:33;16.00;29.60
49861;DHT22;35761;48.826;9.238;2023-05-19T16:14:04;16.00;31.30
49861;DHT22;35761;48.826;9.238;2023-05-19T16:16:34;16.00;25.10